Time;durP1;ratioP1;P1;durP2;ratioP2;P2;SDS_P1;SDS_P2;PMS_P1;PMS_P2;Temp;Humidity;BMP_temperature;BMP_pressure;BME280_temperature;BME280_humidity;BME280_pressure;Samples;Min_cycle;Max_cycle;Signal;HPM_P1;HPM_P2
2022/03/27 00:02:01;;;;;;;5.90;5.30;;;11.50;99.90;;;;;;5059494;28;20862;-40
2022/03/27 00:04:27;;;;;;;8.97;6.30;;;11.30;99.90;;;;;;5067746;28;20463;-39
2022/03/27 00:06:52;;;;;;;7.90;5.83;;;11.20;99.90;;;;;;5077855;28;20180;-39
2022/03/27 00:09:18;;;;;;;6.97;5.80;;;11.20;99.90;;;;;;5060392;28;20640;-40
2022/03/27 00:11:44;;;;;;;7.80;5.83;;;11.30;99.90;;;;;;5049645;28;20602;-40
2022/03/27 00:14:09;;;;;;;9.20;6.60;;;11.30;99.90;;;;;;5049988;28;20182;-40
2022/03/27 00:16:35;;;;;;;7.67;5.60;;;11.10;99.90;;;;;;5063207;28;20459;-39
2022/03/27 00:19:01;;;;;;;7.53;6.00;;;11.10;99.90;;;;;;5076264;28;20177;-39
2022/03/27 00:21:27;;;;;;;8.97;5.77;;;11.10;99.90;;;;;;5049191;28;20174;-39
2022/03/27 00:23:53;;;;;;;6.30;5.70;;;11.30;99.90;;;;;;5070989;28;20431;-39
2022/03/27 00:26:21;;;;;;;6.83;6.13;;;11.10;99.90;;;;;;5065559;28;20718;-40
2022/03/27 00:28:46;;;;;;;8.00;5.10;;;11.20;99.90;;;;;;5050151;28;20431;-39
2022/03/27 00:31:13;;;;;;;6.30;5.60;;;11.10;99.90;;;;;;5049622;28;20432;-39
2022/03/27 00:33:40;;;;;;;8.90;5.77;;;11.20;99.90;;;;;;5055895;28;20770;-39
2022/03/27 00:36:09;;;;;;;7.57;5.70;;;11.10;99.90;;;;;;5053817;28;20432;-40
2022/03/27 00:38:36;;;;;;;7.30;5.50;;;11.20;99.90;;;;;;5049823;28;20420;-39
2022/03/27 00:41:03;;;;;;;8.37;6.20;;;11.10;99.90;;;;;;5057816;28;20911;-40
2022/03/27 00:43:29;;;;;;;10.17;7.40;;;11.10;99.90;;;;;;5049611;28;20421;-39
2022/03/27 00:45:55;;;;;;;8.90;6.10;;;11.10;99.90;;;;;;5047629;28;20467;-39
2022/03/27 00:48:23;;;;;;;8.13;6.10;;;10.90;99.90;;;;;;5053986;28;20424;-40
2022/03/27 00:50:50;;;;;;;8.23;6.00;;;10.90;99.90;;;;;;5063082;28;20448;-40
2022/03/27 00:53:17;;;;;;;7.77;5.80;;;10.80;99.90;;;;;;5048307;28;20416;-40
2022/03/27 00:55:45;;;;;;;7.33;6.20;;;10.80;99.90;;;;;;5054615;28;20420;-39
2022/03/27 00:58:11;;;;;;;9.40;7.07;;;10.80;99.90;;;;;;5049220;28;20475;-40
2022/03/27 01:00:43;;;;;;;10.80;6.60;;;10.80;99.90;;;;;;5048584;28;20510;-39
2022/03/27 01:03:14;;;;;;;8.60;6.50;;;10.80;99.90;;;;;;5052291;28;20420;-39
2022/03/27 01:05:43;;;;;;;8.87;6.93;;;10.70;99.90;;;;;;5067739;28;20464;-42
2022/03/27 01:08:11;;;;;;;11.27;6.57;;;10.80;99.90;;;;;;5049220;28;20513;-39
2022/03/27 01:10:38;;;;;;;7.00;6.30;;;10.80;99.90;;;;;;5050118;28;20412;-39
2022/03/27 01:13:18;;;;;;;9.17;6.60;;;10.80;99.90;;;;;;5048993;28;20489;-39
2022/03/27 01:15:53;;;;;;;7.37;6.50;;;10.60;99.90;;;;;;5051483;28;20423;-39
2022/03/27 01:18:19;;;;;;;7.60;6.33;;;10.60;99.90;;;;;;5062106;28;20894;-39
2022/03/27 01:20:45;;;;;;;8.13;6.90;;;10.50;99.90;;;;;;5060394;28;20420;-39
2022/03/27 01:23:12;;;;;;;9.20;6.30;;;10.40;99.90;;;;;;5050055;28;20830;-39
2022/03/27 01:25:39;;;;;;;8.60;6.70;;;10.50;99.90;;;;;;5059014;28;20359;-40
2022/03/27 01:28:08;;;;;;;9.63;8.03;;;10.40;99.90;;;;;;5048439;28;20473;-39
2022/03/27 01:30:35;;;;;;;15.23;8.67;;;10.60;99.90;;;;;;5048224;28;20427;-39
2022/03/27 01:33:02;;;;;;;10.57;7.97;;;10.60;99.90;;;;;;5065406;28;20416;-40
2022/03/27 01:35:28;;;;;;;11.43;8.60;;;10.60;99.90;;;;;;5058125;28;20428;-42
2022/03/27 01:37:54;;;;;;;11.20;8.30;;;10.50;99.90;;;;;;5048486;28;20431;-39
2022/03/27 01:40:20;;;;;;;11.43;9.50;;;10.50;99.90;;;;;;5053472;28;20424;-39
2022/03/27 01:42:46;;;;;;;15.60;8.80;;;10.50;99.90;;;;;;5048606;28;20939;-39
2022/03/27 01:45:12;;;;;;;10.97;8.57;;;10.50;99.90;;;;;;5048399;28;20722;-39
2022/03/27 01:47:39;;;;;;;12.20;8.80;;;10.40;99.90;;;;;;5063705;28;20453;-40
2022/03/27 01:50:06;;;;;;;11.53;9.30;;;10.50;99.90;;;;;;5067399;28;20490;-40
2022/03/27 01:52:33;;;;;;;15.60;9.47;;;10.40;99.90;;;;;;5048507;28;20424;-40
2022/03/27 01:54:58;;;;;;;12.27;9.97;;;10.50;99.90;;;;;;5048950;28;20521;-39
2022/03/27 01:57:24;;;;;;;9.80;8.77;;;10.40;99.90;;;;;;5048101;28;20990;-39
2022/03/27 01:59:50;;;;;;;14.67;9.53;;;10.30;99.90;;;;;;5047584;28;20197;-39
2022/03/27 02:02:23;;;;;;;11.23;9.33;;;10.30;99.90;;;;;;5059630;28;20189;-39
2022/03/27 02:04:50;;;;;;;9.43;8.20;;;10.30;99.90;;;;;;5072064;28;20200;-40
2022/03/27 02:07:16;;;;;;;11.67;9.10;;;10.40;99.90;;;;;;5047953;28;20424;-40
2022/03/27 02:09:41;;;;;;;11.33;9.20;;;10.40;99.90;;;;;;5053789;28;20797;-39
2022/03/27 02:12:07;;;;;;;13.50;10.30;;;10.20;99.90;;;;;;5053975;28;20190;-40
2022/03/27 02:14:33;;;;;;;12.83;9.40;;;10.30;99.90;;;;;;5047909;28;20193;-39
2022/03/27 02:16:59;;;;;;;11.40;9.90;;;10.20;99.90;;;;;;5047743;28;20440;-39
2022/03/27 02:19:24;;;;;;;12.20;10.00;;;10.20;99.90;;;;;;5069338;28;20269;-39
2022/03/27 02:21:51;;;;;;;12.73;10.60;;;10.10;99.90;;;;;;5056135;28;20198;-39
2022/03/27 02:24:16;;;;;;;13.83;11.10;;;10.10;99.90;;;;;;5048113;28;20712;-40
2022/03/27 02:26:45;;;;;;;12.93;10.50;;;10.30;99.90;;;;;;5054272;28;20512;-39
2022/03/27 02:29:13;;;;;;;12.20;10.70;;;10.10;99.90;;;;;;5046586;28;20194;-40
2022/03/27 02:31:38;;;;;;;12.93;11.50;;;10.00;99.90;;;;;;5047786;28;21089;-39
2022/03/27 02:34:04;;;;;;;14.60;11.13;;;10.00;99.90;;;;;;5063730;28;20511;-39
2022/03/27 02:36:31;;;;;;;13.37;10.93;;;9.80;99.90;;;;;;5071791;28;20609;-39
2022/03/27 02:38:56;;;;;;;11.57;10.37;;;9.80;99.90;;;;;;5047362;28;20312;-39
2022/03/27 02:41:22;;;;;;;14.60;11.37;;;9.80;99.90;;;;;;5050614;28;20539;-41
2022/03/27 02:43:47;;;;;;;11.83;10.30;;;9.90;99.90;;;;;;5047714;28;20626;-39
2022/03/27 02:46:13;;;;;;;12.10;10.83;;;9.80;99.90;;;;;;5047625;28;20692;-39
2022/03/27 02:48:39;;;;;;;14.70;11.80;;;9.80;99.90;;;;;;5075627;28;20564;-39
2022/03/27 02:51:05;;;;;;;12.20;10.20;;;9.80;99.90;;;;;;5057146;28;20652;-40
2022/03/27 02:53:30;;;;;;;11.83;10.17;;;10.00;99.90;;;;;;5053272;28;20177;-39
2022/03/27 02:55:56;;;;;;;14.03;12.20;;;9.90;99.90;;;;;;5053430;28;20430;-40
2022/03/27 02:58:22;;;;;;;13.87;10.90;;;9.80;99.90;;;;;;5047125;28;20186;-40
2022/03/27 03:00:48;;;;;;;13.57;12.13;;;9.80;99.90;;;;;;5046516;28;20276;-40
2022/03/27 03:03:14;;;;;;;13.30;11.90;;;9.70;99.90;;;;;;5052379;28;20196;-39
2022/03/27 03:05:41;;;;;;;16.23;12.97;;;9.70;99.90;;;;;;5071269;28;20243;-40
2022/03/27 03:08:11;;;;;;;14.20;12.70;;;9.80;99.90;;;;;;5046352;28;20416;-39
2022/03/27 03:10:38;;;;;;;15.47;13.37;;;9.50;99.90;;;;;;5059735;28;20862;-40
2022/03/27 03:13:06;;;;;;;20.03;14.37;;;9.80;99.90;;;;;;5046801;28;20440;-40
2022/03/27 03:15:32;;;;;;;18.10;14.00;;;9.70;99.90;;;;;;5046803;28;20428;-40
2022/03/27 03:17:57;;;;;;;14.87;13.17;;;9.80;99.90;;;;;;5059991;28;20438;-39
2022/03/27 03:20:24;;;;;;;16.20;13.90;;;9.70;99.90;;;;;;5068112;28;20928;-39
2022/03/27 03:22:50;;;;;;;15.70;14.00;;;9.70;99.90;;;;;;5057170;28;20186;-40
2022/03/27 03:25:16;;;;;;;14.70;12.90;;;9.90;99.90;;;;;;5051242;28;20497;-40
2022/03/27 03:27:41;;;;;;;17.00;14.13;;;9.90;99.90;;;;;;5046697;28;20428;-39
2022/03/27 03:30:09;;;;;;;17.80;13.07;;;10.00;99.90;;;;;;5046081;28;20264;-39
2022/03/27 03:32:36;;;;;;;16.03;14.37;;;10.00;99.90;;;;;;5050730;28;20557;-39
2022/03/27 03:35:06;;;;;;;16.70;13.80;;;10.00;99.90;;;;;;5059292;28;20441;-40
2022/03/27 03:37:31;;;;;;;17.80;15.90;;;9.90;99.90;;;;;;5050323;28;20838;-39
2022/03/27 03:39:57;;;;;;;19.50;15.93;;;9.90;99.90;;;;;;5046972;28;20432;-39
2022/03/27 03:42:23;;;;;;;20.37;15.73;;;9.80;99.90;;;;;;5046718;28;20660;-39
2022/03/27 03:44:48;;;;;;;21.40;17.03;;;9.70;99.90;;;;;;5046471;28;20227;-39
2022/03/27 03:47:14;;;;;;;21.60;17.20;;;9.80;99.90;;;;;;5054628;28;20197;-39
2022/03/27 03:49:40;;;;;;;20.40;17.07;;;9.80;99.90;;;;;;5053766;28;20196;-39
2022/03/27 03:52:07;;;;;;;20.77;17.07;;;9.70;99.90;;;;;;5051820;28;20810;-40
2022/03/27 03:54:34;;;;;;;19.80;16.47;;;9.70;99.90;;;;;;5046633;28;20335;-40
2022/03/27 03:57:04;;;;;;;24.47;18.50;;;9.80;99.90;;;;;;5055808;28;20975;-39
2022/03/27 03:59:33;;;;;;;26.20;17.70;;;9.80;99.90;;;;;;5046680;28;20432;-39
2022/03/27 04:01:59;;;;;;;26.77;17.90;;;9.70;99.90;;;;;;5044512;28;20450;-40
2022/03/27 04:04:25;;;;;;;26.57;18.20;;;9.70;99.90;;;;;;5057517;28;20432;-39
2022/03/27 04:06:51;;;;;;;20.23;16.97;;;9.80;99.90;;;;;;5062027;28;20515;-39
2022/03/27 04:09:17;;;;;;;23.20;17.27;;;9.80;99.90;;;;;;5049874;28;20581;-40
2022/03/27 04:11:44;;;;;;;27.00;18.87;;;10.10;99.90;;;;;;5055384;28;20833;-39
2022/03/27 04:14:09;;;;;;;25.73;18.50;;;9.90;99.90;;;;;;5046209;28;20747;-40
2022/03/27 04:16:35;;;;;;;27.07;20.47;;;9.90;99.90;;;;;;5045566;28;20798;-40
2022/03/27 04:19:01;;;;;;;33.40;21.73;;;9.90;99.90;;;;;;5057267;28;20197;-39
2022/03/27 04:21:26;;;;;;;34.70;23.20;;;9.90;99.90;;;;;;5064886;28;20185;-39
2022/03/27 04:23:52;;;;;;;38.73;24.10;;;9.80;99.90;;;;;;5051086;28;20189;-39
2022/03/27 04:26:18;;;;;;;38.13;23.70;;;9.80;99.90;;;;;;5050860;28;20331;-40
2022/03/27 04:28:45;;;;;;;38.37;24.10;;;9.90;99.90;;;;;;5050020;28;20708;-39
2022/03/27 04:31:11;;;;;;;38.43;25.43;;;9.90;99.90;;;;;;5048661;28;20558;-39
2022/03/27 04:33:36;;;;;;;37.00;25.53;;;9.90;99.90;;;;;;5055221;28;20688;-39
2022/03/27 04:36:05;;;;;;;38.00;24.50;;;9.90;99.90;;;;;;5074803;28;20702;-42
2022/03/27 04:38:31;;;;;;;37.90;25.43;;;10.00;99.90;;;;;;5049620;28;20436;-42
2022/03/27 04:40:57;;;;;;;34.70;22.67;;;9.90;99.90;;;;;;5056048;28;20844;-40
2022/03/27 04:43:23;;;;;;;43.80;26.03;;;9.90;99.90;;;;;;5051903;28;20432;-41
2022/03/27 04:45:49;;;;;;;37.30;23.73;;;10.00;99.90;;;;;;5048972;28;20221;-39
2022/03/27 04:48:15;;;;;;;38.10;24.10;;;9.80;99.90;;;;;;5059144;28;20665;-40
2022/03/27 04:50:41;;;;;;;43.70;26.43;;;9.90;99.90;;;;;;5069424;28;20434;-40
2022/03/27 04:53:07;;;;;;;36.23;23.27;;;10.00;99.90;;;;;;5052633;28;20190;-40
2022/03/27 04:55:32;;;;;;;34.43;24.33;;;10.00;99.90;;;;;;5052493;28;20197;-39
2022/03/27 04:57:58;;;;;;;38.30;23.03;;;9.90;99.90;;;;;;5052021;28;20296;-39
2022/03/27 05:00:24;;;;;;;37.10;23.83;;;10.00;99.90;;;;;;5048596;28;20193;-40
2022/03/27 05:02:49;;;;;;;32.57;23.77;;;10.30;99.90;;;;;;5049071;28;20189;-40
2022/03/27 05:05:15;;;;;;;31.17;23.77;;;10.10;99.90;;;;;;5080064;28;20246;-39
2022/03/27 05:07:42;;;;;;;36.13;25.80;;;9.90;99.90;;;;;;5051984;28;20200;-39
2022/03/27 05:10:10;;;;;;;40.80;24.83;;;10.20;99.90;;;;;;5058817;28;20427;-40
2022/03/27 05:12:36;;;;;;;36.70;25.77;;;10.00;99.90;;;;;;5051400;28;20440;-40
2022/03/27 05:15:02;;;;;;;37.50;26.73;;;10.20;99.90;;;;;;5049313;28;20424;-40
2022/03/27 05:17:27;;;;;;;35.40;25.80;;;10.00;99.90;;;;;;5052755;28;20193;-39
2022/03/27 05:19:53;;;;;;;41.43;26.30;;;10.10;99.90;;;;;;5068340;28;20491;-39
2022/03/27 05:22:19;;;;;;;35.40;26.37;;;10.00;99.90;;;;;;5053632;28;20197;-40
2022/03/27 05:24:47;;;;;;;38.70;28.43;;;9.90;99.90;;;;;;5048818;28;20213;-42
2022/03/27 05:27:17;;;;;;;39.00;27.70;;;9.90;99.90;;;;;;5059248;28;20633;-39
2022/03/27 05:29:43;;;;;;;46.80;30.10;;;10.10;99.90;;;;;;5047995;28;20436;-40
2022/03/27 05:32:09;;;;;;;51.03;31.37;;;9.80;99.90;;;;;;5047421;28;20911;-39
2022/03/27 05:34:35;;;;;;;62.97;35.13;;;9.90;99.90;;;;;;5069214;28;20184;-42
2022/03/27 05:37:03;;;;;;;97.37;44.13;;;9.90;99.90;;;;;;5067893;28;20208;-41
2022/03/27 05:39:28;;;;;;;100.63;42.80;;;10.10;99.90;;;;;;5048417;28;20439;-40
2022/03/27 05:41:54;;;;;;;101.87;44.97;;;10.00;99.90;;;;;;5054923;28;20432;-39
2022/03/27 05:44:20;;;;;;;90.97;43.20;;;9.70;99.90;;;;;;5046558;28;20212;-41
2022/03/27 05:46:45;;;;;;;96.20;45.27;;;10.00;99.90;;;;;;5048471;28;20193;-42
2022/03/27 05:49:11;;;;;;;88.93;42.07;;;10.10;99.90;;;;;;5064544;28;20674;-39
2022/03/27 05:51:36;;;;;;;72.93;38.93;;;9.70;99.90;;;;;;5064144;28;20197;-40
2022/03/27 05:54:02;;;;;;;75.20;41.33;;;9.80;99.90;;;;;;5068754;28;20615;-40
2022/03/27 05:56:28;;;;;;;68.43;37.90;;;9.90;99.90;;;;;;5057184;28;20386;-39
2022/03/27 05:58:54;;;;;;;69.83;37.50;;;9.90;99.90;;;;;;5047779;28;20202;-41
2022/03/27 06:01:19;;;;;;;68.87;37.13;;;9.90;99.90;;;;;;5047394;28;20190;-40
2022/03/27 06:03:46;;;;;;;65.47;37.30;;;9.90;99.90;;;;;;5053145;28;20182;-40
2022/03/27 06:06:12;;;;;;;73.23;38.50;;;10.00;99.90;;;;;;5058748;28;20610;-39
2022/03/27 06:08:37;;;;;;;74.13;38.20;;;10.10;99.90;;;;;;5050014;28;20424;-40
2022/03/27 06:11:04;;;;;;;68.67;37.53;;;10.10;99.90;;;;;;5065299;28;20420;-39
2022/03/27 06:13:30;;;;;;;76.27;37.80;;;10.10;99.90;;;;;;5056659;28;20193;-44
2022/03/27 06:15:55;;;;;;;78.27;38.10;;;10.00;99.90;;;;;;5060925;28;20760;-40
2022/03/27 06:18:21;;;;;;;82.37;39.90;;;10.10;99.90;;;;;;5049724;28;20193;-39
2022/03/27 06:20:47;;;;;;;82.70;38.20;;;10.00;99.90;;;;;;5050388;28;20536;-39
2022/03/27 06:23:13;;;;;;;83.70;37.77;;;10.20;99.90;;;;;;5054638;28;20181;-39
2022/03/27 06:25:38;;;;;;;76.00;37.57;;;10.30;99.90;;;;;;5047268;28;20599;-40
2022/03/27 06:28:05;;;;;;;63.17;33.23;;;9.90;99.90;;;;;;5055250;28;20185;-39
2022/03/27 06:30:32;;;;;;;53.87;31.67;;;10.10;99.90;;;;;;5046712;28;20267;-41
2022/03/27 06:32:59;;;;;;;55.83;32.67;;;10.10;99.90;;;;;;5046952;28;20429;-42
2022/03/27 06:35:25;;;;;;;54.20;30.27;;;10.20;99.90;;;;;;5062628;28;20481;-41
2022/03/27 06:37:52;;;;;;;50.20;31.10;;;10.10;99.90;;;;;;5061529;28;20424;-39
2022/03/27 06:40:20;;;;;;;53.40;30.97;;;10.10;99.90;;;;;;5046382;28;20435;-39
2022/03/27 06:42:46;;;;;;;55.33;30.73;;;10.00;99.90;;;;;;5050799;28;20737;-39
2022/03/27 06:45:13;;;;;;;56.20;30.23;;;10.00;99.90;;;;;;5047451;28;21119;-39
2022/03/27 06:47:40;;;;;;;50.90;30.13;;;10.00;99.90;;;;;;5046553;28;20190;-40
2022/03/27 06:50:06;;;;;;;50.73;28.23;;;10.00;99.90;;;;;;5061547;28;20509;-40
2022/03/27 06:52:34;;;;;;;39.80;26.00;;;10.00;99.90;;;;;;5068146;28;20844;-40
2022/03/27 06:55:00;;;;;;;49.00;28.37;;;10.20;99.90;;;;;;5047165;28;20454;-41
2022/03/27 06:57:26;;;;;;;44.87;27.70;;;10.20;99.90;;;;;;5058868;28;20443;-39
2022/03/27 07:05:22;;;;;;;52.23;29.80;;;10.30;99.90;;;;;;5066719;28;20458;-41
2022/03/27 07:07:49;;;;;;;56.77;33.00;;;10.20;99.90;;;;;;5065145;28;20804;-40
2022/03/27 07:10:16;;;;;;;66.00;34.83;;;10.00;99.90;;;;;;5057759;28;20423;-39
2022/03/27 07:12:42;;;;;;;60.03;33.73;;;10.10;99.90;;;;;;5060169;28;20515;-39
2022/03/27 07:15:09;;;;;;;60.63;33.20;;;10.00;99.90;;;;;;5046916;28;20426;-40
2022/03/27 07:17:46;;;;;;;61.43;32.80;;;10.20;99.90;;;;;;5046629;28;20427;-41
2022/03/27 07:20:12;;;;;;;61.50;32.83;;;10.00;99.90;;;;;;5063681;28;20432;-40
2022/03/27 07:22:39;;;;;;;65.50;34.80;;;10.00;99.90;;;;;;5059455;28;20423;-40
2022/03/27 07:25:07;;;;;;;64.57;33.50;;;10.10;99.90;;;;;;5065742;28;20863;-42
2022/03/27 07:27:33;;;;;;;62.47;35.40;;;10.00;99.90;;;;;;5060181;28;20793;-41
2022/03/27 07:29:59;;;;;;;63.20;33.50;;;10.00;99.90;;;;;;5047872;28;21024;-40
2022/03/27 07:32:24;;;;;;;56.00;33.80;;;10.40;99.90;;;;;;5060375;28;20424;-40
2022/03/27 07:34:50;;;;;;;65.33;34.53;;;10.10;99.90;;;;;;5065842;28;20192;-40
2022/03/27 07:37:16;;;;;;;65.93;35.63;;;10.30;99.90;;;;;;5068794;28;20189;-39
2022/03/27 07:39:42;;;;;;;61.87;33.43;;;10.10;99.90;;;;;;5060174;28;20179;-40
2022/03/27 07:42:08;;;;;;;65.60;34.70;;;10.10;99.90;;;;;;5074777;28;20438;-40
2022/03/27 07:44:33;;;;;;;62.10;34.80;;;10.10;99.90;;;;;;5054177;28;20190;-40
2022/03/27 07:46:59;;;;;;;61.27;33.60;;;10.20;99.90;;;;;;5047237;28;20431;-40
2022/03/27 07:49:26;;;;;;;63.20;34.07;;;10.20;99.90;;;;;;5062052;28;20220;-43
2022/03/27 07:51:53;;;;;;;57.00;32.83;;;10.30;99.90;;;;;;5074979;28;20423;-41
2022/03/27 07:54:19;;;;;;;53.47;30.43;;;10.50;99.90;;;;;;5050416;28;20520;-41
2022/03/27 07:56:45;;;;;;;53.07;29.97;;;10.40;99.90;;;;;;5058873;28;20538;-41
2022/03/27 07:59:11;;;;;;;49.40;29.70;;;10.50;99.90;;;;;;5075975;28;20616;-42
2022/03/27 08:01:36;;;;;;;46.90;28.87;;;10.50;99.90;;;;;;5071044;28;21002;-39
2022/03/27 08:04:02;;;;;;;44.87;28.03;;;10.80;99.90;;;;;;5067582;28;20264;-39
2022/03/27 08:06:29;;;;;;;47.80;29.10;;;10.60;99.90;;;;;;5072735;28;20279;-40
2022/03/27 08:08:56;;;;;;;48.20;29.17;;;10.70;99.90;;;;;;5074719;28;20181;-41
2022/03/27 08:11:23;;;;;;;42.63;26.67;;;10.70;99.90;;;;;;5048222;28;20507;-40
2022/03/27 08:13:49;;;;;;;38.00;26.03;;;10.90;99.90;;;;;;5053672;28;20432;-40
2022/03/27 08:16:15;;;;;;;38.07;25.50;;;11.00;99.90;;;;;;5055030;28;20508;-39
2022/03/27 08:18:43;;;;;;;35.57;23.37;;;10.90;99.90;;;;;;5069965;28;20443;-40
2022/03/27 08:21:08;;;;;;;32.13;22.93;;;10.90;99.90;;;;;;5056147;28;20592;-41
2022/03/27 08:23:34;;;;;;;33.67;24.00;;;11.00;99.90;;;;;;5064152;28;20422;-40
2022/03/27 08:28:45;;;;;;;31.10;22.47;;;11.00;99.90;;;;;;5050275;28;20174;-40
2022/03/27 08:31:10;;;;;;;33.00;22.20;;;11.00;99.90;;;;;;5059593;28;20504;-39
2022/03/27 08:33:36;;;;;;;29.53;22.97;;;11.00;99.90;;;;;;5061290;28;20185;-40
2022/03/27 08:36:02;;;;;;;30.87;21.73;;;11.00;99.90;;;;;;5058704;28;20181;-40
2022/03/27 08:38:27;;;;;;;27.97;20.83;;;11.00;99.90;;;;;;5063022;28;20559;-41
2022/03/27 08:40:55;;;;;;;34.67;22.93;;;11.00;99.90;;;;;;5056031;28;20856;-40
2022/03/27 08:43:21;;;;;;;27.77;20.40;;;11.20;99.90;;;;;;5055704;28;20181;-40
2022/03/27 08:45:47;;;;;;;29.87;21.60;;;11.10;99.90;;;;;;5055950;28;20467;-41
2022/03/27 08:48:13;;;;;;;28.60;21.67;;;11.30;99.90;;;;;;5058844;28;20419;-40
2022/03/27 08:50:50;;;;;;;30.03;21.10;;;11.10;99.90;;;;;;5057880;28;20264;-40
2022/03/27 08:53:31;;;;;;;28.90;21.40;;;11.10;99.90;;;;;;5064053;28;20497;-41
2022/03/27 08:56:06;;;;;;;33.73;22.03;;;11.20;99.90;;;;;;5056766;28;20431;-40
2022/03/27 08:58:35;;;;;;;25.80;19.33;;;11.30;99.90;;;;;;5058369;28;20416;-41
2022/03/27 09:01:05;;;;;;;27.57;20.63;;;11.30;99.90;;;;;;5056125;28;20493;-44
2022/03/27 09:03:31;;;;;;;27.07;20.87;;;11.40;99.90;;;;;;5057882;28;20836;-39
2022/03/27 09:05:59;;;;;;;25.47;19.07;;;11.50;99.90;;;;;;5064823;28;20969;-40
2022/03/27 09:08:25;;;;;;;24.60;19.10;;;11.50;99.90;;;;;;5057964;28;20507;-41
2022/03/27 09:10:51;;;;;;;25.87;19.50;;;11.60;99.90;;;;;;5054120;28;20756;-40
2022/03/27 09:13:18;;;;;;;25.50;18.70;;;11.50;99.90;;;;;;5063805;28;20177;-40
2022/03/27 09:15:45;;;;;;;22.33;18.40;;;11.70;99.90;;;;;;5055052;28;20181;-40
2022/03/27 09:18:13;;;;;;;25.20;19.10;;;11.70;99.90;;;;;;5055376;28;21015;-41
2022/03/27 09:20:43;;;;;;;26.53;19.27;;;11.70;99.90;;;;;;5056903;28;20444;-39
2022/03/27 09:23:29;;;;;;;24.67;17.83;;;11.90;99.90;;;;;;5055658;28;20416;-39
2022/03/27 09:25:59;;;;;;;23.20;18.80;;;11.80;99.90;;;;;;5061380;28;20485;-40
2022/03/27 09:28:25;;;;;;;25.00;18.67;;;11.70;99.90;;;;;;5063645;28;20426;-40
2022/03/27 09:30:51;;;;;;;24.63;18.43;;;11.70;99.90;;;;;;5058220;28;20408;-40
2022/03/27 09:33:33;;;;;;;25.70;19.80;;;11.70;99.90;;;;;;5055422;28;20261;-39
2022/03/27 09:36:10;;;;;;;23.27;18.13;;;11.80;99.90;;;;;;5059573;28;20960;-40
2022/03/27 09:38:37;;;;;;;24.67;18.93;;;11.80;99.90;;;;;;5060492;28;20767;-40
2022/03/27 09:41:04;;;;;;;24.47;19.53;;;11.90;99.90;;;;;;5048132;28;20954;-39
2022/03/27 09:43:29;;;;;;;23.27;17.60;;;11.90;99.90;;;;;;5054456;28;20872;-39
2022/03/27 09:46:03;;;;;;;26.20;18.47;;;11.90;99.90;;;;;;5048204;28;20471;-38
2022/03/27 09:48:29;;;;;;;26.53;20.07;;;12.00;99.90;;;;;;5048459;28;20660;-40
2022/03/27 09:50:58;;;;;;;22.27;17.20;;;12.20;99.90;;;;;;5062884;28;20438;-39
2022/03/27 09:53:31;;;;;;;30.53;19.43;;;12.30;99.90;;;;;;5068814;28;20416;-38
2022/03/27 09:55:59;;;;;;;20.97;16.30;;;12.40;99.90;;;;;;5048520;28;20428;-39
2022/03/27 09:58:45;;;;;;;55.43;21.70;;;12.60;99.90;;;;;;5056742;28;20497;-38
2022/03/27 10:01:17;;;;;;;23.47;18.00;;;12.70;99.90;;;;;;5087644;28;20426;-39
2022/03/27 10:03:57;;;;;;;19.60;16.20;;;12.80;99.90;;;;;;5074577;28;20435;-39
2022/03/27 10:06:37;;;;;;;22.30;17.57;;;12.90;99.90;;;;;;5062305;28;20849;-38
2022/03/27 10:09:05;;;;;;;601.30;60.10;;;12.90;99.90;;;;;;5059654;28;20410;-38
2022/03/27 10:11:31;;;;;;;17.90;14.00;;;13.00;99.90;;;;;;5069022;28;20427;-35
2022/03/27 10:13:57;;;;;;;26.37;17.00;;;13.10;99.90;;;;;;5057381;28;20556;-36
2022/03/27 10:16:26;;;;;;;24.37;16.80;;;12.90;99.90;;;;;;5051869;28;20490;-36
2022/03/27 10:19:05;;;;;;;21.93;15.70;;;13.10;99.90;;;;;;5047705;28;20455;-36
2022/03/27 10:21:32;;;;;;;24.27;18.53;;;13.30;99.90;;;;;;5054801;28;20419;-36
2022/03/27 10:24:16;;;;;;;23.30;16.90;;;13.50;99.90;;;;;;5068707;28;20554;-36
2022/03/27 10:26:45;;;;;;;24.20;17.87;;;13.50;99.90;;;;;;5047504;28;20471;-36
2022/03/27 10:29:12;;;;;;;28.77;17.67;;;13.70;99.90;;;;;;5055242;28;20498;-36
2022/03/27 10:31:38;;;;;;;38.73;19.40;;;14.10;99.90;;;;;;5060430;28;20436;-36
2022/03/27 10:34:08;;;;;;;24.60;18.57;;;14.60;99.90;;;;;;5065834;28;20416;-37
2022/03/27 10:36:55;;;;;;;22.17;18.43;;;14.90;99.90;;;;;;5061655;28;20180;-36
2022/03/27 10:39:29;;;;;;;26.27;19.40;;;15.20;99.90;;;;;;5056480;28;20420;-36
2022/03/27 10:42:06;;;;;;;26.10;20.10;;;15.40;99.90;;;;;;5048128;28;20419;-36
2022/03/27 10:44:52;;;;;;;22.40;17.87;;;15.70;99.90;;;;;;5052388;28;20420;-36
2022/03/27 10:47:20;;;;;;;21.50;16.57;;;15.70;99.90;;;;;;5048854;28;20423;-36
2022/03/27 10:50:01;;;;;;;23.50;18.80;;;15.80;99.90;;;;;;5049324;28;20475;-36
2022/03/27 10:52:30;;;;;;;24.50;19.07;;;16.00;99.90;;;;;;5051337;28;20409;-36
2022/03/27 10:54:59;;;;;;;26.50;19.77;;;16.00;99.90;;;;;;5057290;28;20749;-36
2022/03/27 10:57:32;;;;;;;22.07;17.90;;;16.10;99.90;;;;;;5079801;28;20496;-36
2022/03/27 10:59:58;;;;;;;23.50;18.23;;;16.20;99.90;;;;;;5057664;28;20467;-36
2022/03/27 11:02:44;;;;;;;23.70;19.13;;;16.10;99.90;;;;;;5045713;28;20479;-36
2022/03/27 11:05:36;;;;;;;25.47;19.33;;;16.00;99.90;;;;;;5054566;28;20470;-36
2022/03/27 11:08:17;;;;;;;22.43;18.00;;;16.10;99.90;;;;;;5051184;28;20435;-36
2022/03/27 11:10:54;;;;;;;22.63;18.40;;;16.30;99.90;;;;;;5046652;28;20826;-36
2022/03/27 11:13:26;;;;;;;26.60;19.53;;;16.30;99.90;;;;;;5051155;28;20415;-36
2022/03/27 11:16:02;;;;;;;22.67;18.63;;;16.20;99.90;;;;;;5049295;28;20466;-36
2022/03/27 11:18:36;;;;;;;27.23;18.10;;;16.30;99.90;;;;;;5046805;28;20488;-36
2022/03/27 11:21:03;;;;;;;21.70;17.40;;;16.30;99.90;;;;;;5051088;28;21236;-36
2022/03/27 11:23:30;;;;;;;24.73;18.67;;;16.50;99.90;;;;;;5071581;28;20430;-37
2022/03/27 11:25:58;;;;;;;22.70;17.70;;;16.60;99.90;;;;;;5046136;28;20513;-36
2022/03/27 11:28:25;;;;;;;21.60;17.53;;;16.80;99.90;;;;;;5050073;28;20426;-36
2022/03/27 11:30:50;;;;;;;19.17;16.77;;;16.60;99.90;;;;;;5045526;28;20428;-36
2022/03/27 11:33:24;;;;;;;23.07;16.87;;;16.70;99.90;;;;;;5046328;28;20428;-36
2022/03/27 11:36:04;;;;;;;22.73;17.30;;;16.80;99.90;;;;;;5053671;28;20421;-36
2022/03/27 11:38:52;;;;;;;21.83;17.67;;;17.00;99.90;;;;;;5074016;28;20465;-36
2022/03/27 11:41:26;;;;;;;23.20;18.40;;;17.20;99.90;;;;;;5045990;28;20416;-36
2022/03/27 11:43:53;;;;;;;23.63;19.20;;;17.40;99.90;;;;;;5053424;28;20429;-36
2022/03/27 11:46:29;;;;;;;23.47;19.20;;;17.50;99.90;;;;;;5051475;28;20575;-36
2022/03/27 11:49:01;;;;;;;23.47;18.20;;;17.60;99.90;;;;;;5046014;28;20462;-36
2022/03/27 11:51:27;;;;;;;23.77;19.20;;;17.70;99.30;;;;;;5057625;28;20562;-36
2022/03/27 11:53:55;;;;;;;23.27;18.63;;;17.70;99.90;;;;;;5069597;28;20415;-36
2022/03/27 11:56:21;;;;;;;22.63;18.20;;;17.70;99.10;;;;;;5046477;28;20454;-36
2022/03/27 11:59:26;;;;;;;20.37;16.90;;;17.70;98.60;;;;;;5052050;28;20988;-36
2022/03/27 12:01:56;;;;;;;21.00;16.57;;;17.60;99.50;;;;;;5013642;28;20429;-36
2022/03/27 12:04:22;;;;;;;18.87;14.67;;;17.70;98.60;;;;;;5037976;28;20511;-36
2022/03/27 12:06:55;;;;;;;19.30;15.30;;;17.70;97.70;;;;;;5061064;28;20466;-36
2022/03/27 12:09:29;;;;;;;17.50;13.70;;;17.60;97.40;;;;;;5061840;28;20184;-36
2022/03/27 12:12:10;;;;;;;20.87;14.00;;;17.70;98.20;;;;;;5052705;28;20941;-37
2022/03/27 12:14:58;;;;;;;15.60;13.53;;;17.80;97.10;;;;;;5058029;28;20814;-36
2022/03/27 12:17:25;;;;;;;14.43;12.87;;;17.90;97.50;;;;;;5050798;28;20583;-36
2022/03/27 12:20:06;;;;;;;15.30;13.70;;;17.90;96.20;;;;;;5053417;28;20439;-36
2022/03/27 12:22:43;;;;;;;18.23;14.20;;;17.60;97.40;;;;;;5070498;28;20936;-36
2022/03/27 12:25:20;;;;;;;13.43;11.10;;;17.50;98.60;;;;;;5055775;28;20479;-36
2022/03/27 12:30:46;;;;;;;13.10;11.30;;;17.60;97.00;;;;;;5045447;28;20786;-36
2022/03/27 12:33:12;;;;;;;10.93;9.43;;;17.60;96.30;;;;;;5044932;28;20482;-36
2022/03/27 12:35:38;;;;;;;12.43;10.43;;;17.70;97.20;;;;;;5049293;28;20434;-36
2022/03/27 12:38:04;;;;;;;12.30;11.00;;;17.70;96.80;;;;;;5067482;28;20801;-36
2022/03/27 12:40:40;;;;;;;11.27;9.73;;;17.90;96.50;;;;;;5062484;28;20501;-37
2022/03/27 12:43:14;;;;;;;11.60;10.00;;;18.00;95.20;;;;;;5049239;28;20212;-36
2022/03/27 12:45:41;;;;;;;13.27;11.03;;;18.10;95.50;;;;;;5059433;28;20527;-36
2022/03/27 12:48:13;;;;;;;13.40;11.07;;;18.00;94.80;;;;;;5049517;28;20859;-36